sensor_id;sensor_type;location;lat;lon;timestamp;P1;durP1;ratioP1;P2;durP2;ratioP2
11139;SDS011;5624;49.388;11.350;2023-02-01T00:02:25;11.47;;;6.03;;
11139;SDS011;5624;49.388;11.350;2023-02-01T00:04:51;7.60;;;5.10;;
11139;SDS011;5624;49.388;11.350;2023-02-01T00:07:16;9.47;;;5.57;;
11139;SDS011;5624;49.388;11.350;2023-02-01T00:09:42;9.43;;;5.67;;
11139;SDS011;5624;49.388;11.350;2023-02-01T00:12:07;9.07;;;5.33;;
11139;SDS011;5624;49.388;11.350;2023-02-01T00:14:33;8.40;;;5.43;;
11139;SDS011;5624;49.388;11.350;2023-02-01T00:17:03;8.50;;;6.13;;
11139;SDS011;5624;49.388;11.350;2023-02-01T00:19:31;9.93;;;6.13;;
11139;SDS011;5624;49.388;11.350;2023-02-01T00:21:57;9.43;;;6.43;;
11139;SDS011;5624;49.388;11.350;2023-02-01T00:24:22;7.87;;;6.47;;
11139;SDS011;5624;49.388;11.350;2023-02-01T00:26:48;8.27;;;5.87;;
11139;SDS011;5624;49.388;11.350;2023-02-01T00:29:17;7.77;;;5.70;;
11139;SDS011;5624;49.388;11.350;2023-02-01T00:31:44;8.77;;;5.93;;
11139;SDS011;5624;49.388;11.350;2023-02-01T00:34:11;8.97;;;6.37;;
11139;SDS011;5624;49.388;11.350;2023-02-01T00:36:39;7.33;;;5.77;;
11139;SDS011;5624;49.388;11.350;2023-02-01T00:39:05;8.23;;;5.93;;
11139;SDS011;5624;49.388;11.350;2023-02-01T00:41:30;10.07;;;6.80;;
11139;SDS011;5624;49.388;11.350;2023-02-01T00:43:56;13.47;;;6.33;;
11139;SDS011;5624;49.388;11.350;2023-02-01T00:46:21;9.37;;;6.00;;
11139;SDS011;5624;49.388;11.350;2023-02-01T00:48:48;13.17;;;6.43;;
11139;SDS011;5624;49.388;11.350;2023-02-01T00:51:18;11.07;;;6.47;;
11139;SDS011;5624;49.388;11.350;2023-02-01T00:53:45;9.30;;;6.30;;
11139;SDS011;5624;49.388;11.350;2023-02-01T00:56:11;9.40;;;6.37;;
11139;SDS011;5624;49.388;11.350;2023-02-01T00:58:37;7.23;;;5.87;;
11139;SDS011;5624;49.388;11.350;2023-02-01T01:01:06;10.37;;;6.90;;
11139;SDS011;5624;49.388;11.350;2023-02-01T01:03:36;9.23;;;6.30;;
11139;SDS011;5624;49.388;11.350;2023-02-01T01:06:07;12.47;;;6.83;;
11139;SDS011;5624;49.388;11.350;2023-02-01T01:08:35;11.93;;;6.53;;
11139;SDS011;5624;49.388;11.350;2023-02-01T01:11:08;8.70;;;6.20;;
11139;SDS011;5624;49.388;11.350;2023-02-01T01:13:36;10.13;;;6.63;;
11139;SDS011;5624;49.388;11.350;2023-02-01T01:16:02;10.60;;;6.20;;
11139;SDS011;5624;49.388;11.350;2023-02-01T01:18:29;9.57;;;6.67;;
11139;SDS011;5624;49.388;11.350;2023-02-01T01:20:55;10.33;;;6.23;;
11139;SDS011;5624;49.388;11.350;2023-02-01T01:23:21;8.20;;;5.73;;
11139;SDS011;5624;49.388;11.350;2023-02-01T01:25:46;10.60;;;6.60;;
11139;SDS011;5624;49.388;11.350;2023-02-01T01:28:13;8.93;;;6.43;;
11139;SDS011;5624;49.388;11.350;2023-02-01T01:30:39;11.50;;;6.13;;
11139;SDS011;5624;49.388;11.350;2023-02-01T01:33:05;10.63;;;6.37;;
11139;SDS011;5624;49.388;11.350;2023-02-01T01:35:31;10.97;;;6.60;;
11139;SDS011;5624;49.388;11.350;2023-02-01T01:37:58;9.00;;;6.57;;
11139;SDS011;5624;49.388;11.350;2023-02-01T01:40:24;7.63;;;6.10;;
11139;SDS011;5624;49.388;11.350;2023-02-01T01:42:51;10.47;;;6.97;;
11139;SDS011;5624;49.388;11.350;2023-02-01T01:45:21;7.90;;;5.93;;
11139;SDS011;5624;49.388;11.350;2023-02-01T01:50:57;8.23;;;6.17;;
11139;SDS011;5624;49.388;11.350;2023-02-01T01:53:32;8.97;;;6.10;;
11139;SDS011;5624;49.388;11.350;2023-02-01T01:56:02;8.03;;;5.83;;
11139;SDS011;5624;49.388;11.350;2023-02-01T01:58:28;8.97;;;5.70;;
11139;SDS011;5624;49.388;11.350;2023-02-01T02:00:57;8.67;;;6.27;;
11139;SDS011;5624;49.388;11.350;2023-02-01T02:03:33;9.03;;;5.87;;
11139;SDS011;5624;49.388;11.350;2023-02-01T02:06:05;9.30;;;5.87;;
11139;SDS011;5624;49.388;11.350;2023-02-01T02:08:41;9.00;;;5.97;;
11139;SDS011;5624;49.388;11.350;2023-02-01T02:11:07;8.87;;;5.93;;
11139;SDS011;5624;49.388;11.350;2023-02-01T02:13:35;9.07;;;5.87;;
11139;SDS011;5624;49.388;11.350;2023-02-01T02:18:41;7.87;;;5.10;;
11139;SDS011;5624;49.388;11.350;2023-02-01T02:30:00;7.30;;;5.17;;
11139;SDS011;5624;49.388;11.350;2023-02-01T02:33:12;8.80;;;5.40;;
11139;SDS011;5624;49.388;11.350;2023-02-01T02:38:58;9.47;;;5.27;;
11139;SDS011;5624;49.388;11.350;2023-02-01T02:47:41;7.90;;;4.80;;
11139;SDS011;5624;49.388;11.350;2023-02-01T02:50:18;7.87;;;5.47;;
11139;SDS011;5624;49.388;11.350;2023-02-01T02:53:14;7.33;;;5.63;;
11139;SDS011;5624;49.388;11.350;2023-02-01T02:56:01;6.90;;;4.97;;
11139;SDS011;5624;49.388;11.350;2023-02-01T02:58:48;7.40;;;5.20;;
11139;SDS011;5624;49.388;11.350;2023-02-01T03:01:33;10.43;;;6.30;;
11139;SDS011;5624;49.388;11.350;2023-02-01T03:04:17;7.10;;;5.00;;
11139;SDS011;5624;49.388;11.350;2023-02-01T03:06:45;7.70;;;5.90;;
11139;SDS011;5624;49.388;11.350;2023-02-01T03:09:16;8.17;;;5.63;;
11139;SDS011;5624;49.388;11.350;2023-02-01T03:12:06;9.30;;;5.13;;
11139;SDS011;5624;49.388;11.350;2023-02-01T03:14:57;9.03;;;6.27;;
11139;SDS011;5624;49.388;11.350;2023-02-01T03:17:29;12.20;;;6.20;;
11139;SDS011;5624;49.388;11.350;2023-02-01T03:19:59;9.33;;;5.83;;
11139;SDS011;5624;49.388;11.350;2023-02-01T03:22:28;7.97;;;6.53;;
11139;SDS011;5624;49.388;11.350;2023-02-01T03:25:02;8.63;;;6.20;;
11139;SDS011;5624;49.388;11.350;2023-02-01T03:27:42;9.57;;;5.90;;
11139;SDS011;5624;49.388;11.350;2023-02-01T03:30:18;10.17;;;6.37;;
11139;SDS011;5624;49.388;11.350;2023-02-01T03:32:48;8.67;;;6.23;;
11139;SDS011;5624;49.388;11.350;2023-02-01T03:35:28;8.27;;;6.57;;
11139;SDS011;5624;49.388;11.350;2023-02-01T03:37:56;10.20;;;7.00;;
11139;SDS011;5624;49.388;11.350;2023-02-01T03:40:32;10.93;;;6.57;;
11139;SDS011;5624;49.388;11.350;2023-02-01T03:43:01;9.50;;;5.77;;
11139;SDS011;5624;49.388;11.350;2023-02-01T03:45:34;8.07;;;5.90;;
11139;SDS011;5624;49.388;11.350;2023-02-01T03:48:05;10.60;;;6.63;;
11139;SDS011;5624;49.388;11.350;2023-02-01T03:50:33;8.07;;;6.20;;
11139;SDS011;5624;49.388;11.350;2023-02-01T03:53:05;8.50;;;6.93;;
11139;SDS011;5624;49.388;11.350;2023-02-01T03:55:34;11.57;;;7.20;;
11139;SDS011;5624;49.388;11.350;2023-02-01T04:00:29;9.03;;;6.67;;
11139;SDS011;5624;49.388;11.350;2023-02-01T04:02:55;10.50;;;7.10;;
11139;SDS011;5624;49.388;11.350;2023-02-01T04:05:21;12.07;;;7.20;;
11139;SDS011;5624;49.388;11.350;2023-02-01T04:07:47;10.13;;;6.93;;
11139;SDS011;5624;49.388;11.350;2023-02-01T04:10:13;9.63;;;7.07;;
11139;SDS011;5624;49.388;11.350;2023-02-01T04:12:39;13.83;;;7.80;;
11139;SDS011;5624;49.388;11.350;2023-02-01T04:15:05;13.13;;;7.30;;
11139;SDS011;5624;49.388;11.350;2023-02-01T04:17:31;11.80;;;7.37;;
11139;SDS011;5624;49.388;11.350;2023-02-01T04:19:56;10.27;;;6.83;;
11139;SDS011;5624;49.388;11.350;2023-02-01T04:22:22;10.20;;;7.23;;
11139;SDS011;5624;49.388;11.350;2023-02-01T04:24:48;11.77;;;7.47;;
11139;SDS011;5624;49.388;11.350;2023-02-01T04:27:13;12.37;;;7.33;;
11139;SDS011;5624;49.388;11.350;2023-02-01T04:29:39;13.23;;;8.20;;
11139;SDS011;5624;49.388;11.350;2023-02-01T04:32:05;9.57;;;6.83;;
11139;SDS011;5624;49.388;11.350;2023-02-01T04:34:31;9.77;;;7.53;;
11139;SDS011;5624;49.388;11.350;2023-02-01T04:36:57;15.10;;;7.50;;
11139;SDS011;5624;49.388;11.350;2023-02-01T04:39:22;11.60;;;7.70;;
11139;SDS011;5624;49.388;11.350;2023-02-01T04:41:48;12.97;;;7.83;;
11139;SDS011;5624;49.388;11.350;2023-02-01T04:44:14;9.00;;;7.10;;
11139;SDS011;5624;49.388;11.350;2023-02-01T04:46:42;9.97;;;7.13;;
11139;SDS011;5624;49.388;11.350;2023-02-01T04:49:09;10.30;;;6.50;;
11139;SDS011;5624;49.388;11.350;2023-02-01T04:51:35;10.90;;;7.10;;
11139;SDS011;5624;49.388;11.350;2023-02-01T04:54:01;8.63;;;6.73;;
11139;SDS011;5624;49.388;11.350;2023-02-01T04:56:27;9.90;;;7.03;;
11139;SDS011;5624;49.388;11.350;2023-02-01T04:58:52;9.27;;;6.07;;
11139;SDS011;5624;49.388;11.350;2023-02-01T05:01:18;11.87;;;6.17;;
11139;SDS011;5624;49.388;11.350;2023-02-01T05:03:44;8.00;;;6.40;;
11139;SDS011;5624;49.388;11.350;2023-02-01T05:06:09;8.80;;;6.17;;
11139;SDS011;5624;49.388;11.350;2023-02-01T05:08:35;9.97;;;6.40;;
11139;SDS011;5624;49.388;11.350;2023-02-01T05:11:00;12.33;;;6.67;;
11139;SDS011;5624;49.388;11.350;2023-02-01T05:13:29;10.70;;;5.50;;
11139;SDS011;5624;49.388;11.350;2023-02-01T05:16:13;9.07;;;6.53;;
11139;SDS011;5624;49.388;11.350;2023-02-01T05:18:39;11.37;;;6.97;;
11139;SDS011;5624;49.388;11.350;2023-02-01T05:21:05;10.50;;;6.53;;
11139;SDS011;5624;49.388;11.350;2023-02-01T05:23:30;9.53;;;6.50;;
11139;SDS011;5624;49.388;11.350;2023-02-01T05:25:59;9.47;;;6.27;;
11139;SDS011;5624;49.388;11.350;2023-02-01T05:28:25;9.77;;;6.60;;
11139;SDS011;5624;49.388;11.350;2023-02-01T05:30:52;10.30;;;6.80;;
11139;SDS011;5624;49.388;11.350;2023-02-01T05:33:17;8.90;;;6.03;;
11139;SDS011;5624;49.388;11.350;2023-02-01T05:35:43;11.50;;;6.70;;
11139;SDS011;5624;49.388;11.350;2023-02-01T05:38:08;9.50;;;6.60;;
11139;SDS011;5624;49.388;11.350;2023-02-01T05:40:34;8.37;;;6.63;;
11139;SDS011;5624;49.388;11.350;2023-02-01T05:42:59;9.03;;;6.30;;
11139;SDS011;5624;49.388;11.350;2023-02-01T05:45:25;8.03;;;5.80;;
11139;SDS011;5624;49.388;11.350;2023-02-01T05:47:51;7.67;;;5.63;;
11139;SDS011;5624;49.388;11.350;2023-02-01T05:50:16;9.23;;;6.07;;
11139;SDS011;5624;49.388;11.350;2023-02-01T05:52:42;10.40;;;6.73;;
11139;SDS011;5624;49.388;11.350;2023-02-01T05:55:08;11.03;;;6.83;;
11139;SDS011;5624;49.388;11.350;2023-02-01T05:57:33;11.20;;;6.70;;
11139;SDS011;5624;49.388;11.350;2023-02-01T05:59:59;8.83;;;6.13;;
11139;SDS011;5624;49.388;11.350;2023-02-01T06:02:25;10.10;;;6.50;;
11139;SDS011;5624;49.388;11.350;2023-02-01T06:04:51;9.77;;;6.50;;
11139;SDS011;5624;49.388;11.350;2023-02-01T06:07:17;11.23;;;6.83;;
11139;SDS011;5624;49.388;11.350;2023-02-01T06:09:42;8.37;;;5.90;;
11139;SDS011;5624;49.388;11.350;2023-02-01T06:12:08;7.97;;;6.07;;
11139;SDS011;5624;49.388;11.350;2023-02-01T06:14:34;7.30;;;5.13;;
11139;SDS011;5624;49.388;11.350;2023-02-01T06:16:59;7.37;;;5.10;;
11139;SDS011;5624;49.388;11.350;2023-02-01T06:19:25;8.00;;;4.83;;
11139;SDS011;5624;49.388;11.350;2023-02-01T06:21:50;7.87;;;4.83;;
11139;SDS011;5624;49.388;11.350;2023-02-01T06:24:16;5.27;;;3.77;;
11139;SDS011;5624;49.388;11.350;2023-02-01T06:26:42;7.27;;;4.70;;
11139;SDS011;5624;49.388;11.350;2023-02-01T06:29:11;5.70;;;4.33;;
11139;SDS011;5624;49.388;11.350;2023-02-01T06:31:37;5.20;;;3.90;;
11139;SDS011;5624;49.388;11.350;2023-02-01T06:34:03;8.80;;;4.37;;
11139;SDS011;5624;49.388;11.350;2023-02-01T06:36:29;11.07;;;4.83;;
11139;SDS011;5624;49.388;11.350;2023-02-01T06:38:57;9.37;;;4.83;;
11139;SDS011;5624;49.388;11.350;2023-02-01T06:41:24;6.73;;;4.57;;
11139;SDS011;5624;49.388;11.350;2023-02-01T06:43:51;8.40;;;4.77;;
11139;SDS011;5624;49.388;11.350;2023-02-01T06:46:17;11.67;;;4.87;;
11139;SDS011;5624;49.388;11.350;2023-02-01T06:48:42;12.10;;;4.80;;
11139;SDS011;5624;49.388;11.350;2023-02-01T06:51:23;7.63;;;5.00;;
11139;SDS011;5624;49.388;11.350;2023-02-01T06:53:50;6.27;;;5.00;;
11139;SDS011;5624;49.388;11.350;2023-02-01T06:56:16;7.80;;;5.73;;
11139;SDS011;5624;49.388;11.350;2023-02-01T06:58:41;10.60;;;5.57;;
11139;SDS011;5624;49.388;11.350;2023-02-01T07:01:07;7.57;;;5.57;;
11139;SDS011;5624;49.388;11.350;2023-02-01T07:03:34;10.63;;;6.13;;
11139;SDS011;5624;49.388;11.350;2023-02-01T07:06:00;8.80;;;6.07;;
11139;SDS011;5624;49.388;11.350;2023-02-01T07:08:26;7.53;;;5.60;;
11139;SDS011;5624;49.388;11.350;2023-02-01T07:10:53;11.37;;;6.67;;
11139;SDS011;5624;49.388;11.350;2023-02-01T07:13:19;6.23;;;4.93;;
11139;SDS011;5624;49.388;11.350;2023-02-01T07:15:44;8.60;;;5.10;;
11139;SDS011;5624;49.388;11.350;2023-02-01T07:18:12;7.30;;;5.50;;
11139;SDS011;5624;49.388;11.350;2023-02-01T07:20:41;7.43;;;5.20;;
11139;SDS011;5624;49.388;11.350;2023-02-01T07:23:08;7.23;;;5.17;;
11139;SDS011;5624;49.388;11.350;2023-02-01T07:25:35;7.57;;;5.57;;
11139;SDS011;5624;49.388;11.350;2023-02-01T07:28:01;6.83;;;5.13;;
11139;SDS011;5624;49.388;11.350;2023-02-01T07:30:27;6.30;;;4.73;;
11139;SDS011;5624;49.388;11.350;2023-02-01T07:32:52;7.13;;;5.00;;
11139;SDS011;5624;49.388;11.350;2023-02-01T07:35:18;6.30;;;4.93;;
11139;SDS011;5624;49.388;11.350;2023-02-01T07:37:43;10.70;;;5.40;;
11139;SDS011;5624;49.388;11.350;2023-02-01T07:40:09;8.73;;;4.97;;
11139;SDS011;5624;49.388;11.350;2023-02-01T07:42:36;7.70;;;4.97;;
11139;SDS011;5624;49.388;11.350;2023-02-01T07:45:02;5.93;;;4.53;;
11139;SDS011;5624;49.388;11.350;2023-02-01T07:47:28;9.53;;;5.00;;
11139;SDS011;5624;49.388;11.350;2023-02-01T07:49:54;10.47;;;5.03;;
11139;SDS011;5624;49.388;11.350;2023-02-01T07:52:19;7.53;;;5.00;;
11139;SDS011;5624;49.388;11.350;2023-02-01T07:54:45;8.17;;;5.20;;
11139;SDS011;5624;49.388;11.350;2023-02-01T07:57:10;9.03;;;4.80;;
11139;SDS011;5624;49.388;11.350;2023-02-01T07:59:36;6.87;;;4.73;;
11139;SDS011;5624;49.388;11.350;2023-02-01T08:02:22;8.17;;;4.80;;
11139;SDS011;5624;49.388;11.350;2023-02-01T08:04:48;6.40;;;4.87;;
11139;SDS011;5624;49.388;11.350;2023-02-01T08:07:14;6.93;;;4.73;;
11139;SDS011;5624;49.388;11.350;2023-02-01T08:09:40;10.70;;;6.33;;
11139;SDS011;5624;49.388;11.350;2023-02-01T08:12:05;7.07;;;4.60;;
11139;SDS011;5624;49.388;11.350;2023-02-01T08:14:31;12.17;;;7.80;;
11139;SDS011;5624;49.388;11.350;2023-02-01T08:16:57;7.33;;;5.27;;
11139;SDS011;5624;49.388;11.350;2023-02-01T08:19:22;6.50;;;4.63;;
11139;SDS011;5624;49.388;11.350;2023-02-01T08:21:48;7.40;;;4.17;;
11139;SDS011;5624;49.388;11.350;2023-02-01T08:24:14;9.50;;;5.60;;
11139;SDS011;5624;49.388;11.350;2023-02-01T08:26:39;7.57;;;4.67;;
11139;SDS011;5624;49.388;11.350;2023-02-01T08:29:05;8.03;;;4.37;;
11139;SDS011;5624;49.388;11.350;2023-02-01T08:31:33;7.23;;;4.53;;
11139;SDS011;5624;49.388;11.350;2023-02-01T08:34:01;8.37;;;4.57;;
11139;SDS011;5624;49.388;11.350;2023-02-01T08:36:29;6.70;;;3.73;;
11139;SDS011;5624;49.388;11.350;2023-02-01T08:38:55;4.33;;;3.23;;
11139;SDS011;5624;49.388;11.350;2023-02-01T08:41:23;8.70;;;4.40;;
11139;SDS011;5624;49.388;11.350;2023-02-01T08:43:50;7.33;;;3.57;;
11139;SDS011;5624;49.388;11.350;2023-02-01T08:46:16;6.40;;;3.87;;
11139;SDS011;5624;49.388;11.350;2023-02-01T08:48:42;8.43;;;4.60;;
11139;SDS011;5624;49.388;11.350;2023-02-01T08:51:10;8.03;;;4.00;;
11139;SDS011;5624;49.388;11.350;2023-02-01T08:53:37;8.17;;;3.37;;
11139;SDS011;5624;49.388;11.350;2023-02-01T08:56:06;7.67;;;4.20;;
11139;SDS011;5624;49.388;11.350;2023-02-01T08:58:32;7.03;;;4.03;;
11139;SDS011;5624;49.388;11.350;2023-02-01T09:01:11;9.60;;;4.67;;
11139;SDS011;5624;49.388;11.350;2023-02-01T09:03:39;7.67;;;4.73;;
11139;SDS011;5624;49.388;11.350;2023-02-01T09:06:06;6.07;;;3.60;;
11139;SDS011;5624;49.388;11.350;2023-02-01T09:08:33;9.00;;;5.80;;
11139;SDS011;5624;49.388;11.350;2023-02-01T09:11:00;7.57;;;4.23;;
11139;SDS011;5624;49.388;11.350;2023-02-01T09:13:27;7.03;;;3.67;;
11139;SDS011;5624;49.388;11.350;2023-02-01T09:15:53;6.43;;;4.10;;
11139;SDS011;5624;49.388;11.350;2023-02-01T09:18:19;6.73;;;4.03;;
11139;SDS011;5624;49.388;11.350;2023-02-01T09:20:45;7.23;;;4.77;;
11139;SDS011;5624;49.388;11.350;2023-02-01T09:23:11;8.23;;;3.40;;
11139;SDS011;5624;49.388;11.350;2023-02-01T09:25:37;6.27;;;4.27;;
11139;SDS011;5624;49.388;11.350;2023-02-01T09:28:03;6.53;;;4.23;;
11139;SDS011;5624;49.388;11.350;2023-02-01T09:30:31;11.87;;;5.63;;
11139;SDS011;5624;49.388;11.350;2023-02-01T09:32:57;4.97;;;3.87;;
11139;SDS011;5624;49.388;11.350;2023-02-01T09:35:23;7.00;;;4.30;;
11139;SDS011;5624;49.388;11.350;2023-02-01T09:37:49;6.10;;;3.67;;
11139;SDS011;5624;49.388;11.350;2023-02-01T09:40:15;5.70;;;3.10;;
11139;SDS011;5624;49.388;11.350;2023-02-01T09:42:49;7.80;;;4.40;;
11139;SDS011;5624;49.388;11.350;2023-02-01T09:47:54;3.83;;;3.10;;
11139;SDS011;5624;49.388;11.350;2023-02-01T09:51:11;5.40;;;3.67;;
11139;SDS011;5624;49.388;11.350;2023-02-01T09:55:45;4.47;;;2.40;;
11139;SDS011;5624;49.388;11.350;2023-02-01T10:00:57;8.33;;;3.57;;
11139;SDS011;5624;49.388;11.350;2023-02-01T10:03:24;10.43;;;4.17;;
11139;SDS011;5624;49.388;11.350;2023-02-01T10:05:57;9.80;;;5.00;;
11139;SDS011;5624;49.388;11.350;2023-02-01T10:10:57;5.90;;;3.23;;
11139;SDS011;5624;49.388;11.350;2023-02-01T10:13:42;6.70;;;3.30;;
11139;SDS011;5624;49.388;11.350;2023-02-01T10:24:40;6.83;;;3.37;;
11139;SDS011;5624;49.388;11.350;2023-02-01T10:29:45;8.30;;;4.00;;
11139;SDS011;5624;49.388;11.350;2023-02-01T10:34:42;10.03;;;3.53;;
11139;SDS011;5624;49.388;11.350;2023-02-01T10:37:32;8.33;;;3.43;;
11139;SDS011;5624;49.388;11.350;2023-02-01T10:40:09;7.13;;;3.70;;
11139;SDS011;5624;49.388;11.350;2023-02-01T10:42:41;11.87;;;6.73;;
11139;SDS011;5624;49.388;11.350;2023-02-01T10:45:06;12.10;;;5.40;;
11139;SDS011;5624;49.388;11.350;2023-02-01T10:47:38;10.50;;;5.07;;
11139;SDS011;5624;49.388;11.350;2023-02-01T10:52:38;12.00;;;5.00;;
11139;SDS011;5624;49.388;11.350;2023-02-01T10:58:05;7.53;;;4.73;;
11139;SDS011;5624;49.388;11.350;2023-02-01T11:00:43;12.37;;;5.10;;
11139;SDS011;5624;49.388;11.350;2023-02-01T11:03:20;10.50;;;5.13;;
11139;SDS011;5624;49.388;11.350;2023-02-01T11:05:46;11.53;;;4.90;;
11139;SDS011;5624;49.388;11.350;2023-02-01T11:08:16;13.43;;;4.77;;
11139;SDS011;5624;49.388;11.350;2023-02-01T11:10:43;14.03;;;3.93;;
11139;SDS011;5624;49.388;11.350;2023-02-01T11:13:17;8.17;;;5.57;;
11139;SDS011;5624;49.388;11.350;2023-02-01T11:15:46;6.90;;;3.60;;
11139;SDS011;5624;49.388;11.350;2023-02-01T11:18:25;7.43;;;3.70;;
11139;SDS011;5624;49.388;11.350;2023-02-01T11:20:53;9.87;;;4.30;;
11139;SDS011;5624;49.388;11.350;2023-02-01T11:23:24;14.03;;;4.60;;
11139;SDS011;5624;49.388;11.350;2023-02-01T11:25:58;10.03;;;4.80;;
11139;SDS011;5624;49.388;11.350;2023-02-01T11:28:27;10.03;;;4.77;;
11139;SDS011;5624;49.388;11.350;2023-02-01T11:30:56;7.73;;;4.40;;
11139;SDS011;5624;49.388;11.350;2023-02-01T11:33:27;9.80;;;4.87;;
11139;SDS011;5624;49.388;11.350;2023-02-01T11:35:58;16.03;;;5.10;;
11139;SDS011;5624;49.388;11.350;2023-02-01T11:38:26;9.77;;;3.83;;
11139;SDS011;5624;49.388;11.350;2023-02-01T11:44:15;11.07;;;4.20;;
11139;SDS011;5624;49.388;11.350;2023-02-01T11:46:46;13.50;;;4.30;;
11139;SDS011;5624;49.388;11.350;2023-02-01T11:57:38;7.43;;;3.00;;
11139;SDS011;5624;49.388;11.350;2023-02-01T12:19:28;7.60;;;3.50;;
11139;SDS011;5624;49.388;11.350;2023-02-01T12:22:15;11.20;;;4.70;;
11139;SDS011;5624;49.388;11.350;2023-02-01T12:24:52;8.77;;;3.90;;
11139;SDS011;5624;49.388;11.350;2023-02-01T12:43:51;6.80;;;3.23;;
11139;SDS011;5624;49.388;11.350;2023-02-01T12:46:23;11.50;;;3.87;;
11139;SDS011;5624;49.388;11.350;2023-02-01T12:49:11;10.87;;;3.60;;
11139;SDS011;5624;49.388;11.350;2023-02-01T12:51:42;8.50;;;3.30;;
11139;SDS011;5624;49.388;11.350;2023-02-01T12:54:53;9.90;;;3.50;;
11139;SDS011;5624;49.388;11.350;2023-02-01T12:57:04;8.87;;;3.33;;
11139;SDS011;5624;49.388;11.350;2023-02-01T13:02:42;9.73;;;3.60;;
11139;SDS011;5624;49.388;11.350;2023-02-01T13:05:18;10.00;;;3.30;;
11139;SDS011;5624;49.388;11.350;2023-02-01T13:07:48;11.40;;;4.57;;
11139;SDS011;5624;49.388;11.350;2023-02-01T13:15:43;11.30;;;4.17;;
11139;SDS011;5624;49.388;11.350;2023-02-01T13:18:22;9.23;;;3.30;;
11139;SDS011;5624;49.388;11.350;2023-02-01T13:23:27;10.70;;;5.30;;
11139;SDS011;5624;49.388;11.350;2023-02-01T13:25:56;6.27;;;2.90;;
11139;SDS011;5624;49.388;11.350;2023-02-01T13:28:26;5.53;;;3.33;;
11139;SDS011;5624;49.388;11.350;2023-02-01T13:44:43;6.77;;;3.87;;
11139;SDS011;5624;49.388;11.350;2023-02-01T13:47:20;10.93;;;3.70;;
11139;SDS011;5624;49.388;11.350;2023-02-01T13:49:53;8.67;;;3.10;;
11139;SDS011;5624;49.388;11.350;2023-02-01T13:52:38;5.20;;;3.20;;
11139;SDS011;5624;49.388;11.350;2023-02-01T13:57:39;8.53;;;3.40;;
11139;SDS011;5624;49.388;11.350;2023-02-01T14:00:08;10.30;;;3.17;;
11139;SDS011;5624;49.388;11.350;2023-02-01T14:08:09;10.47;;;2.63;;
11139;SDS011;5624;49.388;11.350;2023-02-01T14:23:47;13.10;;;8.53;;
11139;SDS011;5624;49.388;11.350;2023-02-01T14:27:13;15.20;;;7.40;;
11139;SDS011;5624;49.388;11.350;2023-02-01T14:37:00;6.77;;;3.37;;
11139;SDS011;5624;49.388;11.350;2023-02-01T14:39:31;11.10;;;3.63;;
11139;SDS011;5624;49.388;11.350;2023-02-01T14:42:05;9.73;;;4.07;;
11139;SDS011;5624;49.388;11.350;2023-02-01T14:44:40;10.57;;;4.63;;
11139;SDS011;5624;49.388;11.350;2023-02-01T14:49:42;8.80;;;3.30;;
11139;SDS011;5624;49.388;11.350;2023-02-01T14:52:33;9.20;;;3.67;;
11139;SDS011;5624;49.388;11.350;2023-02-01T14:55:06;8.13;;;3.20;;
11139;SDS011;5624;49.388;11.350;2023-02-01T14:57:55;9.60;;;3.27;;
11139;SDS011;5624;49.388;11.350;2023-02-01T15:00:28;7.30;;;3.40;;
11139;SDS011;5624;49.388;11.350;2023-02-01T15:02:59;10.47;;;3.80;;
11139;SDS011;5624;49.388;11.350;2023-02-01T15:05:54;9.80;;;4.10;;
11139;SDS011;5624;49.388;11.350;2023-02-01T15:08:24;7.47;;;4.03;;
11139;SDS011;5624;49.388;11.350;2023-02-01T15:10:53;8.67;;;4.53;;
11139;SDS011;5624;49.388;11.350;2023-02-01T15:13:24;9.30;;;4.33;;
11139;SDS011;5624;49.388;11.350;2023-02-01T15:18:31;7.63;;;4.03;;
11139;SDS011;5624;49.388;11.350;2023-02-01T15:21:01;8.53;;;4.60;;
11139;SDS011;5624;49.388;11.350;2023-02-01T15:23:28;13.20;;;7.97;;
11139;SDS011;5624;49.388;11.350;2023-02-01T15:25:55;11.23;;;3.93;;
11139;SDS011;5624;49.388;11.350;2023-02-01T15:28:21;11.50;;;3.73;;
11139;SDS011;5624;49.388;11.350;2023-02-01T15:31:00;13.73;;;3.77;;
11139;SDS011;5624;49.388;11.350;2023-02-01T15:33:29;9.97;;;3.67;;
11139;SDS011;5624;49.388;11.350;2023-02-01T15:38:32;6.93;;;3.33;;
11139;SDS011;5624;49.388;11.350;2023-02-01T15:46:21;12.73;;;4.73;;
11139;SDS011;5624;49.388;11.350;2023-02-01T15:48:50;15.00;;;4.10;;
11139;SDS011;5624;49.388;11.350;2023-02-01T15:51:22;12.07;;;4.83;;
11139;SDS011;5624;49.388;11.350;2023-02-01T15:53:57;9.67;;;4.97;;
11139;SDS011;5624;49.388;11.350;2023-02-01T15:56:26;9.73;;;3.50;;
11139;SDS011;5624;49.388;11.350;2023-02-01T15:58:56;6.70;;;3.27;;
11139;SDS011;5624;49.388;11.350;2023-02-01T16:01:24;6.70;;;3.83;;
11139;SDS011;5624;49.388;11.350;2023-02-01T16:06:34;15.63;;;3.70;;
11139;SDS011;5624;49.388;11.350;2023-02-01T16:09:12;10.67;;;7.17;;
11139;SDS011;5624;49.388;11.350;2023-02-01T16:11:47;9.70;;;4.03;;
11139;SDS011;5624;49.388;11.350;2023-02-01T16:14:12;9.17;;;3.77;;
11139;SDS011;5624;49.388;11.350;2023-02-01T16:16:38;6.93;;;4.67;;
11139;SDS011;5624;49.388;11.350;2023-02-01T16:19:04;6.93;;;3.23;;
11139;SDS011;5624;49.388;11.350;2023-02-01T16:21:29;7.97;;;3.03;;
11139;SDS011;5624;49.388;11.350;2023-02-01T16:23:55;8.30;;;3.70;;
11139;SDS011;5624;49.388;11.350;2023-02-01T16:26:21;12.00;;;3.10;;
11139;SDS011;5624;49.388;11.350;2023-02-01T16:28:46;8.70;;;2.57;;
11139;SDS011;5624;49.388;11.350;2023-02-01T16:31:13;8.20;;;2.80;;
11139;SDS011;5624;49.388;11.350;2023-02-01T16:33:48;8.43;;;2.73;;
11139;SDS011;5624;49.388;11.350;2023-02-01T16:36:15;11.10;;;3.30;;
11139;SDS011;5624;49.388;11.350;2023-02-01T16:38:41;5.87;;;2.70;;
11139;SDS011;5624;49.388;11.350;2023-02-01T16:41:10;5.33;;;2.23;;
11139;SDS011;5624;49.388;11.350;2023-02-01T16:43:38;11.30;;;3.33;;
11139;SDS011;5624;49.388;11.350;2023-02-01T16:46:04;5.90;;;2.50;;
11139;SDS011;5624;49.388;11.350;2023-02-01T16:48:31;9.37;;;2.77;;
11139;SDS011;5624;49.388;11.350;2023-02-01T16:51:04;8.97;;;3.00;;
11139;SDS011;5624;49.388;11.350;2023-02-01T16:53:34;7.03;;;2.60;;
11139;SDS011;5624;49.388;11.350;2023-02-01T16:56:00;7.87;;;3.10;;
11139;SDS011;5624;49.388;11.350;2023-02-01T16:58:27;11.27;;;2.77;;
11139;SDS011;5624;49.388;11.350;2023-02-01T17:00:53;5.83;;;2.70;;
11139;SDS011;5624;49.388;11.350;2023-02-01T17:03:19;11.40;;;2.67;;
11139;SDS011;5624;49.388;11.350;2023-02-01T17:05:50;12.63;;;3.30;;
11139;SDS011;5624;49.388;11.350;2023-02-01T17:08:18;9.73;;;2.73;;
11139;SDS011;5624;49.388;11.350;2023-02-01T17:10:55;11.00;;;3.03;;
11139;SDS011;5624;49.388;11.350;2023-02-01T17:13:21;5.07;;;2.43;;
11139;SDS011;5624;49.388;11.350;2023-02-01T17:16:03;6.43;;;2.63;;
11139;SDS011;5624;49.388;11.350;2023-02-01T17:18:34;9.80;;;3.03;;
11139;SDS011;5624;49.388;11.350;2023-02-01T17:21:00;7.30;;;2.90;;
11139;SDS011;5624;49.388;11.350;2023-02-01T17:23:28;6.93;;;2.63;;
11139;SDS011;5624;49.388;11.350;2023-02-01T17:25:55;7.67;;;2.73;;
11139;SDS011;5624;49.388;11.350;2023-02-01T17:28:21;6.87;;;3.03;;
11139;SDS011;5624;49.388;11.350;2023-02-01T17:30:47;12.40;;;3.03;;
11139;SDS011;5624;49.388;11.350;2023-02-01T17:33:34;6.13;;;2.80;;
11139;SDS011;5624;49.388;11.350;2023-02-01T17:35:59;8.53;;;2.80;;
11139;SDS011;5624;49.388;11.350;2023-02-01T17:38:25;7.70;;;2.90;;
11139;SDS011;5624;49.388;11.350;2023-02-01T17:40:51;7.23;;;3.23;;
11139;SDS011;5624;49.388;11.350;2023-02-01T17:43:21;11.40;;;2.70;;
11139;SDS011;5624;49.388;11.350;2023-02-01T17:45:54;7.20;;;2.93;;
11139;SDS011;5624;49.388;11.350;2023-02-01T17:48:23;8.37;;;3.50;;
11139;SDS011;5624;49.388;11.350;2023-02-01T17:50:49;6.17;;;2.77;;